Time;durP1;ratioP1;P1;durP2;ratioP2;P2;SDS_P1;SDS_P2;PMS_P1;PMS_P2;Temp;Humidity;BMP_temperature;BMP_pressure;BME280_temperature;BME280_humidity;BME280_pressure;Samples;Min_cycle;Max_cycle;Signal;HPM_P1;HPM_P2
2022/12/31 00:01:48;;;;;;;1.40;0.60;;;10.60;99.90;;;;;;5010304;28;20241;-78
2022/12/31 00:04:14;;;;;;;2.13;0.63;;;10.70;99.90;;;;;;5026996;28;20465;-78
2022/12/31 00:06:40;;;;;;;1.30;0.70;;;10.60;99.90;;;;;;5031046;28;20218;-78
2022/12/31 00:09:06;;;;;;;1.10;0.40;;;10.60;99.90;;;;;;5031072;28;20186;-78
2022/12/31 00:11:33;;;;;;;2.03;0.80;;;10.60;99.90;;;;;;5030586;28;20577;-75
2022/12/31 00:13:59;;;;;;;1.20;0.50;;;10.70;99.90;;;;;;5007007;28;20437;-77
2022/12/31 00:16:28;;;;;;;1.27;0.60;;;10.70;99.90;;;;;;5011376;28;20440;-78
2022/12/31 00:19:00;;;;;;;1.30;0.50;;;10.70;99.90;;;;;;5013582;28;20520;-80
2022/12/31 00:21:28;;;;;;;1.20;0.50;;;10.70;99.90;;;;;;5034257;22;20490;-78
2022/12/31 00:23:54;;;;;;;1.83;0.50;;;10.70;99.90;;;;;;5031206;28;20552;-78
2022/12/31 00:26:23;;;;;;;1.30;0.60;;;10.70;99.90;;;;;;5031793;28;20508;-78
2022/12/31 00:28:50;;;;;;;1.10;0.50;;;10.70;99.90;;;;;;5031808;28;20889;-78
2022/12/31 00:31:21;;;;;;;1.40;0.50;;;10.80;99.90;;;;;;5031603;28;20432;-78
2022/12/31 00:33:47;;;;;;;1.10;0.50;;;10.80;99.90;;;;;;5017361;28;20426;-78
2022/12/31 00:36:19;;;;;;;1.10;0.50;;;10.80;99.90;;;;;;5006568;28;20429;-78
2022/12/31 00:38:46;;;;;;;1.10;0.50;;;10.80;99.90;;;;;;5032037;28;20693;-78
2022/12/31 00:41:12;;;;;;;2.13;0.83;;;10.80;99.90;;;;;;5030105;28;20417;-78
2022/12/31 00:43:38;;;;;;;3.73;0.67;;;10.80;99.90;;;;;;5011478;28;20541;-78
2022/12/31 00:46:05;;;;;;;1.20;0.50;;;11.00;99.90;;;;;;4997044;28;20502;-78
2022/12/31 00:48:31;;;;;;;1.40;0.60;;;11.10;99.90;;;;;;5006990;28;20626;-79
2022/12/31 00:50:57;;;;;;;3.90;0.73;;;11.20;99.90;;;;;;5015649;28;20502;-79
2022/12/31 00:53:24;;;;;;;1.10;0.40;;;11.30;99.90;;;;;;5017376;28;20794;-79
2022/12/31 00:55:50;;;;;;;1.43;0.60;;;11.40;99.90;;;;;;5015314;28;20197;-78
2022/12/31 00:58:16;;;;;;;4.10;0.73;;;11.60;99.90;;;;;;5008876;28;20840;-78
2022/12/31 01:00:42;;;;;;;1.50;0.77;;;11.60;99.90;;;;;;5004768;28;20484;-78
2022/12/31 01:03:07;;;;;;;1.30;0.60;;;11.60;99.90;;;;;;5022102;28;20207;-79
2022/12/31 01:05:34;;;;;;;1.50;0.67;;;11.60;99.90;;;;;;5026472;28;20681;-78
2022/12/31 01:08:00;;;;;;;1.30;0.50;;;11.70;99.90;;;;;;5031541;28;20187;-78
2022/12/31 01:13:10;;;;;;;1.10;0.50;;;11.80;99.90;;;;;;4992791;28;20425;-79
2022/12/31 01:15:37;;;;;;;1.30;0.50;;;11.90;99.90;;;;;;5015497;28;20523;-78
2022/12/31 01:18:04;;;;;;;1.10;0.47;;;11.90;99.90;;;;;;5020395;28;20596;-78
2022/12/31 01:20:34;;;;;;;1.40;0.60;;;11.90;99.90;;;;;;5025372;28;20516;-78
2022/12/31 01:22:59;;;;;;;1.17;0.50;;;11.90;99.90;;;;;;5023392;28;20638;-78
2022/12/31 01:25:25;;;;;;;1.87;0.57;;;12.00;99.90;;;;;;5028860;28;21186;-78
2022/12/31 01:27:51;;;;;;;1.17;0.53;;;12.00;99.90;;;;;;5027009;28;20174;-78
2022/12/31 01:30:16;;;;;;;1.27;0.60;;;12.00;99.90;;;;;;5021451;28;20269;-78
2022/12/31 01:32:42;;;;;;;1.20;0.50;;;12.00;99.90;;;;;;5013598;28;20218;-78
2022/12/31 01:35:08;;;;;;;1.10;0.40;;;12.10;99.90;;;;;;5003669;28;20186;-78
2022/12/31 01:37:33;;;;;;;1.67;0.60;;;12.10;99.90;;;;;;5024598;28;20183;-79
2022/12/31 01:39:59;;;;;;;1.20;0.57;;;12.10;99.90;;;;;;5019392;28;20178;-78
2022/12/31 01:42:24;;;;;;;1.30;0.60;;;12.10;99.90;;;;;;5035044;28;20178;-78
2022/12/31 01:44:53;;;;;;;1.20;0.50;;;12.20;99.90;;;;;;5034606;28;20210;-78
2022/12/31 01:47:29;;;;;;;1.60;0.63;;;12.10;99.90;;;;;;5035255;28;20173;-78
2022/12/31 01:50:05;;;;;;;2.20;0.67;;;12.20;99.90;;;;;;5034883;28;20507;-78
2022/12/31 01:52:36;;;;;;;2.17;0.77;;;12.10;99.90;;;;;;5025537;28;20790;-78
2022/12/31 01:55:48;;;;;;;1.30;0.50;;;12.10;99.90;;;;;;5034890;28;20427;-78
2022/12/31 01:58:21;;;;;;;1.60;0.90;;;12.10;99.90;;;;;;5027952;28;20437;-78
2022/12/31 02:00:48;;;;;;;1.13;0.40;;;12.20;99.90;;;;;;5029108;28;20443;-78
2022/12/31 02:03:14;;;;;;;4.60;1.20;;;12.20;99.90;;;;;;5017953;28;20455;-78
2022/12/31 02:05:49;;;;;;;1.83;0.80;;;12.10;99.90;;;;;;5022368;28;20448;-79
2022/12/31 02:08:15;;;;;;;1.30;0.60;;;12.20;99.90;;;;;;5023689;28;20174;-79
2022/12/31 02:10:41;;;;;;;1.93;0.73;;;12.20;99.90;;;;;;5021173;28;20410;-79
2022/12/31 02:13:06;;;;;;;1.77;0.70;;;12.10;99.90;;;;;;5017457;28;20656;-78
2022/12/31 02:16:09;;;;;;;1.10;0.47;;;12.10;99.90;;;;;;4994961;28;20231;-78
2022/12/31 02:18:56;;;;;;;1.47;0.50;;;12.00;99.90;;;;;;5023667;28;20202;-78
2022/12/31 02:21:36;;;;;;;1.40;0.60;;;12.10;99.90;;;;;;5021186;28;20449;-78
2022/12/31 02:24:40;;;;;;;1.10;0.40;;;12.10;99.90;;;;;;5030615;28;20459;-78
2022/12/31 02:27:40;;;;;;;1.13;0.47;;;12.20;99.90;;;;;;5028885;28;20418;-78
2022/12/31 02:30:10;;;;;;;1.30;0.50;;;12.20;99.90;;;;;;5023430;28;20418;-78
2022/12/31 02:32:47;;;;;;;2.07;0.60;;;12.20;99.90;;;;;;5005423;28;20447;-78
2022/12/31 02:35:32;;;;;;;1.20;0.50;;;12.20;99.90;;;;;;5033248;28;20424;-78
2022/12/31 02:38:04;;;;;;;1.53;0.60;;;12.20;99.90;;;;;;5034058;28;20428;-78
2022/12/31 02:40:33;;;;;;;1.50;0.53;;;12.20;99.90;;;;;;5025120;28;20421;-79
2022/12/31 02:42:58;;;;;;;1.20;0.50;;;12.20;99.90;;;;;;5029509;28;20500;-78
2022/12/31 02:45:32;;;;;;;6.10;0.50;;;12.20;99.90;;;;;;5024390;28;20802;-79
2022/12/31 02:48:11;;;;;;;3.20;0.80;;;12.20;99.90;;;;;;5031350;28;20292;-79
2022/12/31 02:50:58;;;;;;;1.17;0.43;;;12.30;99.90;;;;;;5021818;28;20468;-79
2022/12/31 02:53:29;;;;;;;2.00;0.60;;;12.30;99.90;;;;;;5022221;28;20416;-79
2022/12/31 02:56:02;;;;;;;1.23;0.60;;;12.30;99.90;;;;;;5031855;28;20924;-79
2022/12/31 03:04:35;;;;;;;1.10;0.40;;;12.50;99.90;;;;;;5006521;28;20468;-79
2022/12/31 03:07:13;;;;;;;1.67;0.70;;;12.50;99.90;;;;;;5033607;28;20429;-79
2022/12/31 03:09:39;;;;;;;1.20;0.53;;;12.50;99.90;;;;;;5022152;28;20506;-79
2022/12/31 03:14:53;;;;;;;1.30;0.60;;;12.60;99.90;;;;;;5025632;28;20197;-79
2022/12/31 03:17:18;;;;;;;1.20;0.60;;;12.60;99.90;;;;;;5013801;28;20454;-79
2022/12/31 03:22:29;;;;;;;2.33;0.70;;;12.70;99.90;;;;;;5027409;28;20268;-79
2022/12/31 03:27:43;;;;;;;2.03;0.60;;;12.70;99.90;;;;;;5033517;28;20429;-79
2022/12/31 03:30:10;;;;;;;1.83;0.50;;;12.60;99.90;;;;;;5032627;28;20425;-79
2022/12/31 03:32:36;;;;;;;1.60;0.50;;;12.70;99.90;;;;;;5022401;28;20444;-79
2022/12/31 03:35:02;;;;;;;1.40;0.60;;;12.70;99.90;;;;;;5029632;28;20782;-79
2022/12/31 03:37:27;;;;;;;1.20;0.50;;;12.70;99.90;;;;;;5032878;28;20190;-79
2022/12/31 03:39:53;;;;;;;5.40;0.87;;;12.60;99.90;;;;;;5032873;28;20178;-79
2022/12/31 03:42:19;;;;;;;1.40;0.70;;;12.60;99.90;;;;;;5022668;28;20194;-79
2022/12/31 03:44:44;;;;;;;1.20;0.50;;;12.70;99.90;;;;;;5012074;28;20227;-79
2022/12/31 03:47:10;;;;;;;1.67;0.80;;;12.70;99.90;;;;;;5013326;28;20521;-78
2022/12/31 03:49:35;;;;;;;1.40;0.50;;;12.80;99.90;;;;;;5012936;28;20183;-79
2022/12/31 03:52:02;;;;;;;1.47;0.60;;;12.80;99.90;;;;;;5012477;28;20206;-79
2022/12/31 03:54:28;;;;;;;20.43;1.10;;;12.90;99.90;;;;;;5012729;28;20623;-79
2022/12/31 03:56:53;;;;;;;2.13;0.90;;;12.90;99.90;;;;;;5012909;28;20433;-79
2022/12/31 03:59:19;;;;;;;1.30;0.50;;;12.90;99.90;;;;;;5012050;28;20259;-79
2022/12/31 04:01:44;;;;;;;1.37;0.60;;;12.90;99.90;;;;;;5012286;28;20194;-79
2022/12/31 04:04:10;;;;;;;1.20;0.57;;;12.90;99.90;;;;;;5011306;28;20206;-79
2022/12/31 04:06:35;;;;;;;1.50;0.50;;;12.90;99.90;;;;;;5012049;28;20640;-79
2022/12/31 04:09:01;;;;;;;1.20;0.50;;;12.90;99.90;;;;;;5012656;28;20183;-78
2022/12/31 04:11:26;;;;;;;1.83;0.60;;;12.90;99.90;;;;;;5012377;28;20183;-78
2022/12/31 04:13:52;;;;;;;1.40;0.50;;;13.00;99.90;;;;;;5005055;28;20683;-78
2022/12/31 04:16:18;;;;;;;1.40;0.70;;;13.00;99.90;;;;;;4993366;28;20195;-78
2022/12/31 04:18:43;;;;;;;1.40;0.60;;;13.00;99.90;;;;;;4997955;28;20183;-78
2022/12/31 04:21:09;;;;;;;1.67;0.77;;;13.00;99.90;;;;;;5010650;28;20643;-78
2022/12/31 04:23:34;;;;;;;1.30;0.60;;;13.10;99.90;;;;;;5000785;28;20198;-78
2022/12/31 04:26:00;;;;;;;1.13;0.40;;;13.20;99.90;;;;;;5012395;28;20224;-78
2022/12/31 04:28:26;;;;;;;1.10;0.40;;;13.20;99.90;;;;;;5012491;28;20596;-78
2022/12/31 04:30:51;;;;;;;1.63;0.63;;;13.10;99.90;;;;;;5012054;28;20179;-78
2022/12/31 04:33:17;;;;;;;1.63;0.90;;;13.20;99.90;;;;;;5011815;28;20233;-78
2022/12/31 04:35:43;;;;;;;1.30;0.50;;;13.10;99.90;;;;;;5011939;28;20187;-78
2022/12/31 04:38:08;;;;;;;1.20;0.50;;;13.20;99.90;;;;;;5011863;28;20190;-78
2022/12/31 04:40:34;;;;;;;2.07;0.70;;;13.20;99.90;;;;;;5012014;28;20632;-78
2022/12/31 04:42:59;;;;;;;2.47;0.60;;;13.10;99.90;;;;;;4998433;28;20632;-78
2022/12/31 04:45:25;;;;;;;2.30;0.67;;;13.10;99.90;;;;;;5011680;28;20191;-78
2022/12/31 04:47:51;;;;;;;1.20;0.50;;;13.00;99.90;;;;;;5008437;28;20186;-78
2022/12/31 04:50:16;;;;;;;1.70;0.60;;;12.90;99.90;;;;;;5011905;28;20202;-78
2022/12/31 04:52:42;;;;;;;1.47;0.57;;;12.80;99.90;;;;;;5009377;28;20179;-78
2022/12/31 04:55:08;;;;;;;1.20;0.50;;;12.80;99.90;;;;;;4992386;28;20183;-78
2022/12/31 04:57:33;;;;;;;1.20;0.50;;;12.80;99.90;;;;;;5007918;28;20488;-78
2022/12/31 04:59:59;;;;;;;1.20;0.40;;;12.70;99.90;;;;;;5011454;28;20229;-78
2022/12/31 05:02:24;;;;;;;1.40;0.60;;;12.60;99.90;;;;;;5010306;28;20183;-78
2022/12/31 05:04:50;;;;;;;1.20;0.50;;;12.60;99.90;;;;;;5003184;28;20540;-78
2022/12/31 05:07:15;;;;;;;1.30;0.60;;;12.60;99.90;;;;;;5007148;28;20180;-78
2022/12/31 05:09:41;;;;;;;1.50;0.70;;;12.70;99.90;;;;;;5012110;28;20600;-78
2022/12/31 05:12:06;;;;;;;1.30;0.60;;;12.60;99.90;;;;;;4996851;28;20219;-78
2022/12/31 05:14:32;;;;;;;1.37;0.47;;;12.60;99.90;;;;;;5004735;28;20187;-78
2022/12/31 05:16:58;;;;;;;1.40;0.50;;;12.60;99.90;;;;;;4993606;28;20680;-78
2022/12/31 05:19:23;;;;;;;1.17;0.50;;;12.50;99.90;;;;;;5008755;28;20630;-78
2022/12/31 05:22:27;;;;;;;1.67;0.60;;;12.60;99.90;;;;;;5011093;28;20256;-78
2022/12/31 05:24:35;;;;;;;1.10;0.50;;;12.60;99.90;;;;;;4994437;28;20232;-78
2022/12/31 05:27:01;;;;;;;1.20;0.50;;;12.60;99.90;;;;;;5011550;28;20415;-78
2022/12/31 05:29:26;;;;;;;3.53;0.50;;;12.50;99.90;;;;;;5011446;28;20194;-78
2022/12/31 05:31:52;;;;;;;1.50;0.90;;;12.60;99.90;;;;;;5007068;28;20903;-78
2022/12/31 05:34:17;;;;;;;2.93;0.67;;;12.50;99.90;;;;;;4991975;28;20702;-78
2022/12/31 05:36:43;;;;;;;7.13;0.90;;;12.50;99.90;;;;;;5009183;28;20183;-78
2022/12/31 05:39:08;;;;;;;2.33;0.70;;;12.50;99.90;;;;;;5011472;28;20254;-78
2022/12/31 05:41:34;;;;;;;1.43;0.50;;;12.50;99.90;;;;;;5011344;28;20183;-78
2022/12/31 05:44:00;;;;;;;2.90;0.70;;;12.40;99.90;;;;;;5011190;28;20205;-78
2022/12/31 05:46:25;;;;;;;1.60;0.60;;;12.40;99.90;;;;;;5011287;28;20230;-78
2022/12/31 05:48:51;;;;;;;1.20;0.60;;;12.50;99.90;;;;;;5011479;28;20183;-78
2022/12/31 05:51:16;;;;;;;1.20;0.50;;;12.50;99.90;;;;;;5011356;28;20179;-78
2022/12/31 05:53:42;;;;;;;1.20;0.50;;;12.50;99.90;;;;;;5006072;28;20683;-78
2022/12/31 05:56:07;;;;;;;1.20;0.50;;;12.40;99.90;;;;;;4998259;28;20183;-78
2022/12/31 05:58:33;;;;;;;1.30;0.70;;;12.40;99.90;;;;;;5011412;28;20237;-77
2022/12/31 06:00:58;;;;;;;1.40;0.63;;;12.40;99.90;;;;;;5014652;28;20617;-78
2022/12/31 06:03:24;;;;;;;1.60;0.67;;;12.40;99.90;;;;;;5013542;28;20203;-78
2022/12/31 06:05:50;;;;;;;1.30;0.60;;;12.40;99.90;;;;;;5001326;28;20282;-78
2022/12/31 06:08:15;;;;;;;1.50;0.50;;;12.40;99.90;;;;;;5006922;28;20995;-78
2022/12/31 06:10:41;;;;;;;1.70;0.70;;;12.50;99.90;;;;;;5007410;28;20221;-78
2022/12/31 06:13:07;;;;;;;1.40;0.80;;;12.50;99.90;;;;;;5014202;28;20183;-78
2022/12/31 06:15:37;;;;;;;1.20;0.50;;;12.50;99.90;;;;;;5002671;28;20913;-77
2022/12/31 06:18:03;;;;;;;6.70;1.07;;;12.50;99.90;;;;;;5014780;28;20422;-78
2022/12/31 06:20:28;;;;;;;3.17;0.70;;;12.50;99.90;;;;;;5001486;28;20417;-78
2022/12/31 06:22:54;;;;;;;1.30;0.50;;;12.40;99.90;;;;;;5005487;28;20196;-77
2022/12/31 06:25:20;;;;;;;1.20;0.50;;;12.50;99.90;;;;;;5011809;28;20218;-78
2022/12/31 06:27:45;;;;;;;1.20;0.50;;;12.40;99.90;;;;;;5014502;28;20179;-77
2022/12/31 06:30:11;;;;;;;1.17;0.47;;;12.40;99.90;;;;;;5014147;28;20221;-78
2022/12/31 06:32:38;;;;;;;1.20;0.50;;;12.40;99.90;;;;;;5014053;28;20183;-78
2022/12/31 06:35:04;;;;;;;3.10;0.50;;;12.40;99.90;;;;;;5014286;28;20480;-78
2022/12/31 06:37:29;;;;;;;1.17;0.50;;;12.40;99.90;;;;;;5014534;28;20425;-78
2022/12/31 06:39:55;;;;;;;1.20;0.50;;;12.30;99.90;;;;;;5014060;28;20414;-78
2022/12/31 06:42:21;;;;;;;2.80;0.50;;;12.30;99.90;;;;;;5004163;28;20188;-78
2022/12/31 06:44:46;;;;;;;1.30;0.60;;;12.30;99.90;;;;;;5009650;28;20211;-76
2022/12/31 06:47:12;;;;;;;1.20;0.40;;;12.30;99.90;;;;;;5006534;28;20681;-77
2022/12/31 06:49:39;;;;;;;1.20;0.50;;;12.40;99.90;;;;;;5000565;28;20176;-79
2022/12/31 06:52:05;;;;;;;1.20;0.60;;;12.30;99.90;;;;;;5012842;28;20273;-78
2022/12/31 06:54:30;;;;;;;1.57;0.73;;;12.50;99.90;;;;;;5001251;28;20502;-79
2022/12/31 06:56:56;;;;;;;1.10;0.40;;;12.40;99.90;;;;;;5014156;28;20179;-78
2022/12/31 06:59:27;;;;;;;2.53;0.67;;;12.40;99.90;;;;;;4991878;28;20183;-79
2022/12/31 07:02:21;;;;;;;1.47;0.70;;;12.30;99.90;;;;;;5013084;28;20582;-79
2022/12/31 07:05:19;;;;;;;1.30;0.60;;;12.30;99.90;;;;;;5004014;28;20492;-78
2022/12/31 07:08:09;;;;;;;1.30;0.50;;;12.30;99.90;;;;;;5012937;28;20914;-78
2022/12/31 07:11:01;;;;;;;1.60;0.60;;;12.40;99.90;;;;;;5012786;28;20417;-79
2022/12/31 07:13:41;;;;;;;1.30;0.50;;;12.40;99.90;;;;;;5013053;28;20936;-79
2022/12/31 07:16:30;;;;;;;1.50;0.60;;;12.40;99.90;;;;;;4992133;28;21042;-79
2022/12/31 07:19:16;;;;;;;4.07;0.63;;;12.40;99.90;;;;;;4998503;28;20470;-79
2022/12/31 07:21:43;;;;;;;1.20;0.50;;;12.40;99.90;;;;;;4989875;28;20444;-78
2022/12/31 07:24:10;;;;;;;1.20;0.63;;;12.40;99.90;;;;;;5013108;28;20493;-79
2022/12/31 07:26:41;;;;;;;1.60;0.70;;;12.40;99.90;;;;;;5013379;28;20410;-78
2022/12/31 07:29:13;;;;;;;2.83;0.50;;;12.40;99.90;;;;;;5003932;28;20429;-78
2022/12/31 07:31:57;;;;;;;1.83;0.60;;;12.50;99.90;;;;;;5010283;28;20406;-78
2022/12/31 07:34:45;;;;;;;1.20;0.50;;;12.40;99.90;;;;;;5005221;28;20441;-78
2022/12/31 07:37:37;;;;;;;1.20;0.50;;;12.50;99.90;;;;;;4982290;28;20454;-78
2022/12/31 07:40:17;;;;;;;3.43;0.57;;;12.50;99.90;;;;;;5011536;28;20417;-78
2022/12/31 07:42:51;;;;;;;1.43;0.50;;;12.50;99.90;;;;;;5012645;28;20492;-78
2022/12/31 07:45:35;;;;;;;1.10;0.50;;;12.40;99.90;;;;;;5012784;28;20583;-78
2022/12/31 07:48:00;;;;;;;1.30;0.50;;;12.50;99.90;;;;;;5013089;28;20775;-78
2022/12/31 07:50:26;;;;;;;1.47;0.50;;;12.50;99.90;;;;;;5012650;28;20424;-79
2022/12/31 07:52:52;;;;;;;1.43;0.60;;;12.50;99.90;;;;;;5003756;28;20488;-78
2022/12/31 07:55:18;;;;;;;1.40;0.60;;;12.50;99.90;;;;;;5012880;28;20210;-79
2022/12/31 07:58:16;;;;;;;1.30;0.50;;;12.60;99.90;;;;;;5011208;28;20242;-78
2022/12/31 08:00:41;;;;;;;1.20;0.50;;;12.60;99.90;;;;;;5012189;28;20418;-78
2022/12/31 08:03:39;;;;;;;1.20;0.50;;;12.70;99.90;;;;;;5003528;28;20898;-78
2022/12/31 08:06:13;;;;;;;1.30;0.70;;;12.60;99.90;;;;;;5012623;28;20500;-78
2022/12/31 08:09:00;;;;;;;2.30;0.83;;;12.60;99.90;;;;;;4999394;28;20433;-78
2022/12/31 08:11:48;;;;;;;1.23;0.57;;;12.60;99.90;;;;;;5012441;28;20414;-79
2022/12/31 08:14:14;;;;;;;1.20;0.50;;;12.60;99.90;;;;;;4994445;28;20427;-78
2022/12/31 08:16:40;;;;;;;1.53;0.70;;;12.70;99.90;;;;;;4992759;28;20477;-78
2022/12/31 08:19:14;;;;;;;1.37;0.60;;;12.80;99.90;;;;;;5001305;28;20426;-79
2022/12/31 08:21:58;;;;;;;1.43;0.70;;;12.80;99.90;;;;;;5010698;28;20249;-78
2022/12/31 08:24:39;;;;;;;1.20;0.57;;;12.90;99.90;;;;;;5002563;28;20546;-78
2022/12/31 08:27:15;;;;;;;1.63;0.60;;;13.00;99.90;;;;;;5005879;28;20434;-78
2022/12/31 08:30:07;;;;;;;1.20;0.50;;;13.10;99.90;;;;;;5005555;28;20421;-78
2022/12/31 08:32:47;;;;;;;3.23;0.80;;;13.20;99.90;;;;;;5002967;28;20426;-78
2022/12/31 08:35:28;;;;;;;1.20;0.40;;;13.30;99.90;;;;;;5012021;28;20430;-78
2022/12/31 08:37:53;;;;;;;1.30;0.60;;;13.30;99.90;;;;;;5012025;28;20583;-78
2022/12/31 08:40:44;;;;;;;1.30;0.50;;;13.40;99.90;;;;;;5012295;28;20965;-78
2022/12/31 08:43:10;;;;;;;1.60;0.50;;;13.40;99.90;;;;;;5011369;28;20630;-78
2022/12/31 08:45:46;;;;;;;1.50;0.60;;;13.40;99.90;;;;;;5011595;28;20441;-78
2022/12/31 08:48:18;;;;;;;1.50;0.60;;;13.40;99.90;;;;;;5012001;28;20198;-78
2022/12/31 08:50:43;;;;;;;1.30;0.60;;;13.40;99.90;;;;;;5011865;28;20441;-78
2022/12/31 08:53:09;;;;;;;2.50;1.00;;;13.30;99.90;;;;;;5006872;28;20902;-78
2022/12/31 08:55:35;;;;;;;1.20;0.47;;;13.30;99.90;;;;;;5011985;28;20186;-78
2022/12/31 08:58:07;;;;;;;1.57;0.60;;;13.40;99.90;;;;;;5010085;28;20183;-78
2022/12/31 09:00:34;;;;;;;1.20;0.50;;;13.30;99.90;;;;;;5011486;28;20594;-79
2022/12/31 09:03:42;;;;;;;1.20;0.50;;;13.20;99.90;;;;;;5002951;28;20461;-79
2022/12/31 09:06:17;;;;;;;1.30;0.50;;;13.30;99.90;;;;;;5011973;28;20797;-78
2022/12/31 09:08:52;;;;;;;1.20;0.50;;;13.30;99.90;;;;;;5011920;28;20421;-78
2022/12/31 09:11:37;;;;;;;1.20;0.50;;;13.40;99.90;;;;;;5011866;28;20858;-78
2022/12/31 09:14:41;;;;;;;1.20;0.50;;;13.50;99.90;;;;;;5007945;28;20936;-78
2022/12/31 09:17:25;;;;;;;1.20;0.50;;;13.50;99.90;;;;;;4994338;28;20418;-78
2022/12/31 09:19:51;;;;;;;1.67;0.60;;;13.60;99.90;;;;;;5002350;28;20441;-78
2022/12/31 09:22:17;;;;;;;1.37;0.63;;;13.70;99.90;;;;;;4995996;28;20448;-78
2022/12/31 09:24:43;;;;;;;1.40;0.80;;;13.80;99.90;;;;;;5004494;28;20290;-78
2022/12/31 09:27:29;;;;;;;1.40;0.60;;;13.90;99.90;;;;;;5010859;28;20241;-77
2022/12/31 09:30:05;;;;;;;1.60;0.70;;;14.00;99.90;;;;;;5006946;28;20210;-77
2022/12/31 09:32:36;;;;;;;1.43;0.60;;;14.20;99.90;;;;;;5011386;28;20418;-80
2022/12/31 09:35:25;;;;;;;2.27;0.80;;;14.40;99.90;;;;;;5010303;28;20430;-80
2022/12/31 09:37:56;;;;;;;1.27;0.53;;;14.50;99.90;;;;;;5011014;28;20418;-80
2022/12/31 09:40:28;;;;;;;8.77;0.77;;;14.70;99.90;;;;;;5016471;28;20525;-80
2022/12/31 09:43:31;;;;;;;1.60;0.50;;;14.80;99.90;;;;;;5015657;28;20426;-80
2022/12/31 09:46:11;;;;;;;1.20;0.40;;;14.90;99.90;;;;;;5016546;28;20906;-80
2022/12/31 09:48:54;;;;;;;1.40;0.60;;;14.90;99.90;;;;;;5016454;28;20444;-79
2022/12/31 09:51:29;;;;;;;1.30;0.60;;;15.10;99.90;;;;;;5016347;28;20417;-80
2022/12/31 09:53:58;;;;;;;1.90;0.60;;;15.10;99.90;;;;;;5029132;28;20412;-80
2022/12/31 09:56:46;;;;;;;1.20;0.50;;;15.20;99.90;;;;;;5015779;28;20412;-77
2022/12/31 09:59:16;;;;;;;1.40;0.50;;;15.10;99.90;;;;;;5013579;28;20479;-78
2022/12/31 10:01:49;;;;;;;1.20;0.50;;;15.10;99.90;;;;;;5014790;28;20401;-78
2022/12/31 10:04:30;;;;;;;1.50;0.80;;;15.20;99.90;;;;;;5001324;28;20612;-78
2022/12/31 10:07:05;;;;;;;1.60;0.50;;;15.30;99.90;;;;;;5002852;28;20417;-78
2022/12/31 10:09:31;;;;;;;1.40;0.57;;;15.40;99.90;;;;;;4991328;28;20406;-78
2022/12/31 10:12:25;;;;;;;1.30;0.60;;;15.40;99.90;;;;;;5014054;28;20414;-78
2022/12/31 10:15:00;;;;;;;1.20;0.40;;;15.50;99.90;;;;;;4997445;28;20663;-78
2022/12/31 10:18:07;;;;;;;1.73;0.70;;;15.50;99.90;;;;;;5009870;28;20426;-78
2022/12/31 10:21:08;;;;;;;1.40;0.73;;;15.60;99.90;;;;;;5011985;28;20461;-78
2022/12/31 10:24:04;;;;;;;1.30;0.60;;;15.40;99.90;;;;;;5002103;28;20814;-78
2022/12/31 10:26:53;;;;;;;4.60;1.13;;;15.40;99.90;;;;;;5014552;28;20912;-78
2022/12/31 10:29:44;;;;;;;6.60;1.00;;;15.50;99.90;;;;;;5005055;28;20732;-78
2022/12/31 10:32:15;;;;;;;1.40;0.60;;;15.60;99.90;;;;;;5014159;28;20909;-79
2022/12/31 10:34:52;;;;;;;7.80;0.70;;;15.70;99.90;;;;;;5014393;28;20418;-78
2022/12/31 10:37:22;;;;;;;1.60;0.70;;;15.90;99.90;;;;;;5014446;28;20489;-78
2022/12/31 10:39:55;;;;;;;2.33;0.77;;;16.00;99.90;;;;;;5014392;28;20414;-78
2022/12/31 10:42:24;;;;;;;1.70;0.60;;;16.10;99.90;;;;;;5014419;28;20414;-78
2022/12/31 10:45:03;;;;;;;9.67;1.10;;;16.20;99.90;;;;;;5013787;28;20520;-78
2022/12/31 10:47:54;;;;;;;2.27;0.70;;;16.30;99.90;;;;;;5013217;28;20421;-78
2022/12/31 10:50:40;;;;;;;1.20;0.50;;;16.30;99.90;;;;;;5004517;28;20415;-78
2022/12/31 10:53:24;;;;;;;2.70;0.90;;;16.40;99.90;;;;;;5007867;28;20414;-78
2022/12/31 10:56:14;;;;;;;3.40;0.90;;;16.40;99.90;;;;;;5013780;28;20537;-78
2022/12/31 10:58:58;;;;;;;1.50;0.60;;;16.50;99.90;;;;;;5013675;28;20501;-78
2022/12/31 11:01:31;;;;;;;1.93;0.73;;;16.50;99.90;;;;;;5013440;28;20410;-78
2022/12/31 11:04:27;;;;;;;1.50;0.60;;;16.60;99.90;;;;;;5013170;28;20992;-78
2022/12/31 11:07:12;;;;;;;1.60;0.50;;;16.70;99.90;;;;;;5002039;28;20478;-78
2022/12/31 11:10:15;;;;;;;2.90;0.80;;;16.70;99.90;;;;;;5001561;28;20890;-78
2022/12/31 11:13:30;;;;;;;1.40;0.70;;;16.70;99.90;;;;;;5006530;28;20426;-78
2022/12/31 11:16:02;;;;;;;1.43;0.60;;;16.90;99.90;;;;;;5009625;28;20525;-78
2022/12/31 11:18:33;;;;;;;1.60;0.67;;;17.00;99.90;;;;;;5000374;28;20816;-81
2022/12/31 11:21:34;;;;;;;1.67;0.60;;;17.00;99.90;;;;;;5009358;28;20430;-80
2022/12/31 11:24:08;;;;;;;3.30;0.77;;;17.10;99.90;;;;;;5002420;28;20465;-80
2022/12/31 11:26:52;;;;;;;1.70;0.70;;;17.10;99.90;;;;;;5013521;28;20432;-77
2022/12/31 11:29:36;;;;;;;1.70;0.50;;;17.10;99.90;;;;;;5013410;28;20523;-78
2022/12/31 11:32:16;;;;;;;1.20;0.40;;;17.00;99.90;;;;;;5012741;28;20430;-77
2022/12/31 11:34:50;;;;;;;1.20;0.50;;;17.10;99.90;;;;;;5013088;28;20516;-78
2022/12/31 11:37:37;;;;;;;1.73;0.60;;;17.10;99.90;;;;;;5013214;28;20426;-78
2022/12/31 11:40:36;;;;;;;1.70;0.57;;;17.10;99.90;;;;;;5010142;28;21226;-78
2022/12/31 11:43:21;;;;;;;1.40;0.50;;;17.10;99.90;;;;;;5009318;28;20438;-77
2022/12/31 11:46:05;;;;;;;1.50;0.60;;;17.20;99.90;;;;;;5013078;28;20885;-78
2022/12/31 11:49:12;;;;;;;4.50;0.70;;;17.30;99.90;;;;;;5001794;28;20419;-78
2022/12/31 11:51:56;;;;;;;1.20;0.50;;;17.30;99.90;;;;;;5012617;28;20420;-78
2022/12/31 11:54:36;;;;;;;1.50;0.70;;;17.40;99.90;;;;;;5008906;28;20453;-78
2022/12/31 11:57:21;;;;;;;1.40;0.70;;;17.40;99.90;;;;;;5012546;28;20513;-78
2022/12/31 11:59:57;;;;;;;1.20;0.50;;;17.50;99.90;;;;;;5012538;28;20430;-78
2022/12/31 12:02:31;;;;;;;1.20;0.43;;;17.60;99.90;;;;;;5003522;28;20418;-78
2022/12/31 12:05:00;;;;;;;1.40;0.60;;;17.50;99.90;;;;;;5012584;28;20468;-78
2022/12/31 12:07:28;;;;;;;1.50;0.70;;;17.40;99.90;;;;;;5012438;28;20427;-78
2022/12/31 12:09:55;;;;;;;1.33;0.53;;;17.50;99.90;;;;;;5012791;28;20461;-78
2022/12/31 12:12:21;;;;;;;1.40;0.50;;;17.50;99.90;;;;;;5012442;28;20473;-79
2022/12/31 12:14:53;;;;;;;1.20;0.50;;;17.50;99.90;;;;;;5003737;28;20434;-79
2022/12/31 12:17:31;;;;;;;4.37;0.73;;;17.60;99.90;;;;;;4997884;28;20461;-78
2022/12/31 12:20:01;;;;;;;3.30;0.60;;;17.60;99.90;;;;;;5008746;28;20496;-79
2022/12/31 12:22:28;;;;;;;1.50;0.60;;;17.50;99.90;;;;;;5011967;28;20472;-78
2022/12/31 12:25:16;;;;;;;7.30;1.17;;;17.50;99.90;;;;;;5012155;28;20457;-79
2022/12/31 12:27:42;;;;;;;1.60;0.60;;;17.40;99.90;;;;;;5012429;28;20433;-78
2022/12/31 12:30:18;;;;;;;1.20;0.60;;;17.40;99.90;;;;;;4997802;28;20426;-78
2022/12/31 12:32:59;;;;;;;1.40;0.60;;;17.40;99.90;;;;;;5011743;28;20187;-79
2022/12/31 12:35:34;;;;;;;1.20;0.50;;;17.40;99.90;;;;;;4987561;28;20893;-78
2022/12/31 12:38:14;;;;;;;1.83;0.60;;;17.40;99.60;;;;;;4998812;28;20415;-78
2022/12/31 12:40:40;;;;;;;1.30;0.50;;;17.40;99.60;;;;;;5004986;28;20426;-78
2022/12/31 12:43:21;;;;;;;1.30;0.50;;;17.30;99.90;;;;;;5009185;28;20417;-79
2022/12/31 12:45:48;;;;;;;1.70;0.70;;;17.40;99.50;;;;;;5011715;28;20420;-78
2022/12/31 12:48:38;;;;;;;1.80;0.50;;;17.40;99.30;;;;;;4998611;28;20413;-78
2022/12/31 12:51:19;;;;;;;1.20;0.50;;;17.40;99.10;;;;;;5011863;28;20405;-78
2022/12/31 12:53:50;;;;;;;1.80;0.70;;;17.40;99.50;;;;;;5011741;28;20410;-78
2022/12/31 12:56:29;;;;;;;1.33;0.53;;;17.30;99.90;;;;;;4999040;28;20505;-78
2022/12/31 12:59:08;;;;;;;1.40;0.57;;;17.30;99.70;;;;;;4999007;28;20438;-78
2022/12/31 13:02:09;;;;;;;1.60;0.50;;;17.30;99.80;;;;;;5003045;28;20410;-78
2022/12/31 13:04:43;;;;;;;1.57;0.60;;;17.20;99.90;;;;;;4980268;28;20473;-78
2022/12/31 13:07:34;;;;;;;1.20;0.50;;;17.20;99.90;;;;;;5011496;28;20430;-78
2022/12/31 13:10:02;;;;;;;1.30;0.50;;;17.10;99.90;;;;;;5009313;28;20477;-78
2022/12/31 13:12:42;;;;;;;1.40;0.60;;;17.00;99.90;;;;;;5009736;28;20436;-78
2022/12/31 13:15:20;;;;;;;2.33;1.00;;;16.90;99.90;;;;;;4999460;28;20426;-78
2022/12/31 13:18:05;;;;;;;1.30;0.50;;;16.80;99.90;;;;;;5000655;28;20426;-78
2022/12/31 13:20:50;;;;;;;1.70;0.60;;;16.70;99.90;;;;;;4996263;28;20475;-78
2022/12/31 13:23:28;;;;;;;3.13;0.73;;;16.70;99.90;;;;;;5006602;28;20449;-78
2022/12/31 13:26:06;;;;;;;1.30;0.50;;;16.60;99.90;;;;;;5011500;28;20771;-78
2022/12/31 13:28:33;;;;;;;1.70;0.67;;;16.60;99.90;;;;;;5011324;28;20848;-79
2022/12/31 13:31:02;;;;;;;1.23;0.50;;;16.60;99.90;;;;;;5010410;28;20771;-78
2022/12/31 13:33:57;;;;;;;1.30;0.50;;;16.50;99.90;;;;;;5011535;28;20430;-78
2022/12/31 13:36:25;;;;;;;2.07;0.60;;;16.60;99.90;;;;;;4998435;28;20457;-78
2022/12/31 13:38:53;;;;;;;1.20;0.50;;;16.60;99.90;;;;;;5011424;28;20418;-78